createdAt,value
2023-04-22T00:02:14.502Z,7.60
2023-04-22T00:04:42.540Z,7.60
2023-04-22T00:07:10.574Z,7.50
2023-04-22T00:09:38.721Z,7.60
2023-04-22T00:12:08.333Z,7.60
2023-04-22T00:14:36.104Z,7.60
2023-04-22T00:17:03.972Z,7.60
2023-04-22T00:19:31.967Z,7.50
2023-04-22T00:21:59.686Z,7.50
2023-04-22T00:24:27.432Z,7.40
2023-04-22T00:26:55.225Z,7.30
2023-04-22T00:29:24.287Z,7.20
2023-04-22T00:31:52.084Z,7.20
2023-04-22T00:34:19.829Z,7.10
2023-04-22T00:36:47.562Z,7.10
2023-04-22T00:39:15.815Z,7.00
2023-04-22T00:41:44.159Z,7.00
2023-04-22T00:44:12.818Z,7.00
2023-04-22T00:46:42.339Z,6.90
2023-04-22T00:49:10.222Z,6.90
2023-04-22T00:51:38.036Z,6.90
2023-04-22T00:54:06.543Z,6.90
2023-04-22T00:56:36.015Z,7.00
2023-04-22T00:59:03.994Z,7.00
2023-04-22T01:01:32.181Z,7.00
2023-04-22T01:04:01.985Z,7.10
2023-04-22T01:06:32.301Z,7.30
2023-04-22T01:09:00.156Z,7.30
2023-04-22T01:11:27.951Z,7.40
2023-04-22T01:13:56.438Z,7.40
2023-04-22T01:16:25.043Z,7.40
2023-04-22T01:18:52.954Z,7.40
2023-04-22T01:21:22.763Z,7.40
2023-04-22T01:23:52.044Z,7.40
2023-04-22T01:26:19.924Z,7.30
2023-04-22T01:28:47.824Z,7.30
2023-04-22T01:31:16.472Z,7.30
2023-04-22T01:33:45.322Z,7.20
2023-04-22T01:36:13.390Z,7.10
2023-04-22T01:38:41.316Z,7.00
2023-04-22T01:41:10.526Z,7.00
2023-04-22T01:43:39.743Z,6.90
2023-04-22T01:46:09.477Z,6.90
2023-04-22T01:48:37.701Z,6.80
2023-04-22T01:51:05.523Z,6.80
2023-04-22T01:53:33.268Z,6.70
2023-04-22T01:56:01.262Z,6.80
2023-04-22T01:58:31.474Z,6.80
2023-04-22T02:00:59.254Z,6.80
2023-04-22T02:03:27.064Z,6.80
2023-04-22T02:05:54.870Z,6.80
2023-04-22T02:08:23.192Z,6.90
2023-04-22T02:10:50.933Z,6.90
2023-04-22T02:13:18.699Z,7.00
2023-04-22T02:15:47.815Z,6.90
2023-04-22T02:18:17.936Z,6.90
2023-04-22T02:20:46.139Z,6.90
2023-04-22T02:23:14.061Z,6.90
2023-04-22T02:25:42.041Z,6.90
2023-04-22T02:28:09.885Z,6.80
2023-04-22T02:30:37.794Z,6.80
2023-04-22T02:33:06.869Z,6.70
2023-04-22T02:35:34.793Z,6.70
2023-04-22T02:38:02.592Z,6.80
2023-04-22T02:40:30.429Z,6.70
2023-04-22T02:42:58.169Z,6.60
2023-04-22T02:45:25.945Z,6.70
2023-04-22T02:47:53.736Z,6.60
2023-04-22T02:50:23.003Z,6.50
2023-04-22T02:52:51.333Z,6.50
2023-04-22T02:55:19.176Z,6.40
2023-04-22T02:57:46.949Z,6.40
2023-04-22T03:00:15.068Z,6.40
2023-04-22T03:02:42.933Z,6.30
2023-04-22T03:05:11.546Z,6.30
2023-04-22T03:07:40.620Z,6.30
2023-04-22T03:10:09.975Z,6.20
2023-04-22T03:12:37.752Z,6.20
2023-04-22T03:15:06.447Z,6.20
2023-04-22T03:17:34.743Z,6.10
2023-04-22T03:20:02.635Z,6.10
2023-04-22T03:22:30.391Z,6.00
2023-04-22T03:24:59.445Z,6.00
2023-04-22T03:27:27.270Z,6.00
2023-04-22T03:29:56.433Z,5.90
2023-04-22T03:32:24.282Z,5.90
2023-04-22T03:34:52.073Z,6.00
2023-04-22T03:37:19.800Z,5.90
2023-04-22T03:39:47.530Z,5.90
2023-04-22T03:42:16.721Z,5.90
2023-04-22T03:44:44.504Z,5.90
2023-04-22T03:47:12.275Z,5.90
2023-04-22T03:49:40.751Z,6.00
2023-04-22T03:52:08.777Z,6.10
2023-04-22T03:54:37.817Z,6.20
2023-04-22T03:57:05.642Z,6.20
2023-04-22T03:59:34.757Z,6.30
2023-04-22T04:02:02.644Z,6.40
2023-04-22T04:04:30.701Z,6.40
2023-04-22T04:06:59.513Z,6.50
2023-04-22T04:09:27.353Z,6.60
2023-04-22T04:11:55.110Z,6.40
2023-04-22T04:14:22.991Z,6.30
2023-04-22T04:16:52.381Z,6.10
2023-04-22T04:19:20.112Z,6.00
2023-04-22T04:21:47.790Z,5.90
2023-04-22T04:24:15.645Z,5.90
2023-04-22T04:26:43.388Z,5.90
2023-04-22T04:29:11.194Z,6.00
2023-04-22T04:31:39.033Z,5.90
2023-04-22T04:34:08.130Z,5.90
2023-04-22T04:36:35.869Z,5.90
2023-04-22T04:39:04.186Z,5.90
2023-04-22T04:41:31.924Z,5.80
2023-04-22T04:44:00.604Z,5.80
2023-04-22T04:46:29.652Z,5.80
2023-04-22T04:48:58.728Z,5.90
2023-04-22T04:51:27.836Z,6.00
2023-04-22T04:53:55.584Z,6.10
2023-04-22T04:56:23.680Z,6.30
2023-04-22T04:58:51.442Z,6.40
2023-04-22T05:01:19.249Z,6.50
2023-04-22T05:03:47.216Z,6.60
2023-04-22T05:06:15.079Z,6.70
2023-04-22T05:08:44.146Z,6.80
2023-04-22T05:11:11.853Z,7.00
2023-04-22T05:13:39.598Z,7.30
2023-04-22T05:16:07.689Z,7.40
2023-04-22T05:18:35.542Z,7.60
2023-04-22T05:21:04.340Z,7.90
2023-04-22T05:23:32.093Z,8.00
2023-04-22T05:26:01.216Z,8.20
2023-04-22T05:28:28.945Z,8.40
2023-04-22T05:30:56.677Z,8.50
2023-04-22T05:33:24.433Z,8.70
2023-04-22T05:35:52.429Z,8.80
2023-04-22T05:38:20.249Z,8.90
2023-04-22T05:40:47.950Z,9.00
2023-04-22T05:43:17.177Z,9.20
2023-04-22T05:45:45.008Z,9.30
2023-04-22T05:48:12.922Z,9.40
2023-04-22T05:50:40.815Z,9.50
2023-04-22T05:53:08.589Z,9.60
2023-04-22T05:55:36.407Z,9.70
2023-04-22T05:58:04.257Z,9.90
2023-04-22T06:00:33.407Z,10.00
2023-04-22T06:03:01.427Z,10.10
2023-04-22T06:05:29.499Z,10.30
2023-04-22T06:07:57.268Z,10.40
2023-04-22T06:10:25.157Z,10.60
2023-04-22T06:12:52.880Z,10.70
2023-04-22T06:15:21.457Z,10.80
2023-04-22T06:17:50.899Z,10.90
2023-04-22T06:20:18.857Z,11.10
2023-04-22T06:22:46.611Z,11.20
2023-04-22T06:25:14.350Z,11.40
2023-04-22T06:27:42.223Z,11.50
2023-04-22T06:30:12.030Z,11.60
2023-04-22T06:32:39.826Z,11.70
2023-04-22T06:35:10.154Z,11.80
2023-04-22T06:37:37.971Z,12.00
2023-04-22T06:40:06.631Z,12.20
2023-04-22T06:42:34.482Z,12.20
2023-04-22T06:45:02.241Z,12.40
2023-04-22T06:47:30.048Z,12.50
2023-04-22T06:49:58.242Z,12.70
2023-04-22T06:52:27.353Z,12.80
2023-04-22T06:54:55.214Z,13.00
2023-04-22T06:57:23.036Z,13.20
2023-04-22T06:59:50.937Z,13.40
2023-04-22T07:02:19.012Z,13.40
2023-04-22T07:04:46.762Z,13.50
2023-04-22T07:07:14.867Z,13.60
2023-04-22T07:09:44.123Z,13.80
2023-04-22T07:12:11.879Z,13.90
2023-04-22T07:14:43.399Z,14.10
2023-04-22T07:17:11.561Z,14.30
2023-04-22T07:19:40.294Z,14.40
2023-04-22T07:22:08.592Z,14.60
2023-04-22T07:24:36.325Z,14.80
2023-04-22T07:27:05.432Z,15.10
2023-04-22T07:29:33.269Z,15.20
2023-04-22T07:32:01.071Z,15.50
2023-04-22T07:34:28.824Z,15.70
2023-04-22T07:36:56.632Z,15.90
2023-04-22T07:39:24.499Z,16.00
2023-04-22T07:41:53.219Z,16.20
2023-04-22T07:44:22.317Z,16.40
2023-04-22T07:46:54.020Z,16.70
2023-04-22T07:49:21.788Z,16.90
2023-04-22T07:51:49.529Z,17.30
2023-04-22T07:54:17.275Z,17.70
2023-04-22T07:56:45.122Z,18.00
2023-04-22T07:59:12.907Z,18.20
2023-04-22T08:01:41.991Z,18.40
2023-04-22T08:04:10.221Z,18.40
2023-04-22T08:06:38.326Z,18.50
2023-04-22T08:09:06.100Z,18.50
2023-04-22T08:11:33.962Z,18.70
2023-04-22T08:14:01.702Z,18.60
2023-04-22T08:16:29.635Z,18.80
2023-04-22T08:18:59.016Z,19.20
2023-04-22T08:21:27.412Z,19.70
2023-04-22T08:23:55.293Z,20.20
2023-04-22T08:26:23.234Z,20.80
2023-04-22T08:28:51.006Z,21.90
2023-04-22T08:31:18.826Z,23.20
2023-04-22T08:33:46.556Z,25.30
2023-04-22T08:36:16.135Z,28.20
2023-04-22T08:38:44.131Z,30.80
2023-04-22T08:41:13.243Z,32.50
2023-04-22T08:43:41.176Z,32.60
2023-04-22T08:46:09.120Z,33.40
2023-04-22T08:48:38.196Z,34.20
2023-04-22T08:51:07.648Z,35.50
2023-04-22T08:53:36.770Z,35.90
2023-04-22T08:56:04.917Z,36.50
2023-04-22T08:58:35.543Z,37.40
2023-04-22T09:01:04.533Z,37.50
2023-04-22T09:03:32.534Z,37.10
2023-04-22T09:06:03.079Z,37.10
2023-04-22T09:08:31.292Z,37.60
2023-04-22T09:11:00.772Z,37.50
2023-04-22T09:13:28.569Z,37.90
2023-04-22T09:15:58.629Z,37.80
2023-04-22T09:18:27.585Z,37.40
2023-04-22T09:20:57.240Z,37.30
2023-04-22T09:23:25.381Z,37.60
2023-04-22T09:25:53.173Z,36.90
2023-04-22T09:28:22.243Z,35.90
2023-04-22T09:30:50.010Z,35.80
2023-04-22T09:33:18.255Z,35.60
2023-04-22T09:35:45.992Z,35.70
2023-04-22T09:38:14.155Z,36.10
2023-04-22T09:40:44.279Z,35.60
2023-04-22T09:43:12.574Z,35.50
2023-04-22T09:45:43.620Z,35.90
2023-04-22T09:48:14.201Z,36.20
2023-04-22T09:50:44.558Z,36.40
2023-04-22T09:53:17.002Z,36.20
2023-04-22T09:55:47.479Z,36.60
2023-04-22T09:58:16.492Z,37.00
2023-04-22T10:00:48.761Z,37.80
2023-04-22T10:03:17.168Z,38.00
2023-04-22T10:05:46.244Z,37.20
2023-04-22T10:08:15.410Z,37.70
2023-04-22T10:10:44.088Z,38.40
2023-04-22T10:13:11.956Z,37.10
2023-04-22T10:15:42.233Z,36.30
2023-04-22T10:18:13.541Z,36.30
2023-04-22T10:20:43.208Z,35.70
2023-04-22T10:23:15.335Z,37.20
2023-04-22T10:25:43.201Z,37.90
2023-04-22T10:28:12.183Z,37.00
2023-04-22T10:30:41.052Z,38.00
2023-04-22T10:33:40.542Z,38.50
2023-04-22T10:36:16.944Z,36.70
2023-04-22T10:39:18.463Z,36.10
2023-04-22T10:41:53.367Z,33.80
2023-04-22T10:44:22.424Z,33.30
2023-04-22T10:47:02.986Z,34.00
2023-04-22T10:49:32.957Z,34.70
2023-04-22T10:52:03.990Z,34.10
2023-04-22T10:54:57.878Z,33.90
2023-04-22T10:57:36.237Z,33.90
2023-04-22T11:00:51.741Z,34.20
2023-04-22T11:03:28.263Z,33.90
2023-04-22T11:06:15.932Z,33.60
2023-04-22T11:08:46.564Z,32.60
2023-04-22T11:11:14.659Z,32.30
2023-04-22T11:13:43.728Z,32.60
2023-04-22T11:16:12.160Z,32.70
2023-04-22T11:18:40.109Z,32.00
2023-04-22T11:21:09.394Z,31.20
2023-04-22T11:23:38.509Z,29.80
2023-04-22T11:26:07.435Z,28.70
2023-04-22T11:28:35.346Z,27.50
2023-04-22T11:31:05.101Z,26.60
2023-04-22T11:33:33.796Z,25.90
2023-04-22T11:36:01.741Z,25.40
2023-04-22T11:38:29.574Z,25.20
2023-04-22T11:40:58.832Z,25.10
2023-04-22T11:43:26.957Z,25.00
2023-04-22T11:45:57.029Z,24.90
2023-04-22T11:48:24.981Z,24.60
2023-04-22T11:51:10.408Z,24.60
2023-04-22T11:53:39.553Z,24.60
2023-04-22T11:56:08.786Z,24.60
2023-04-22T11:58:41.815Z,24.20
2023-04-22T12:01:14.007Z,24.40
2023-04-22T12:03:42.349Z,24.70
2023-04-22T12:06:10.562Z,24.70
2023-04-22T12:08:41.973Z,24.70
2023-04-22T12:11:12.848Z,24.60
2023-04-22T12:13:45.556Z,24.70
2023-04-22T12:16:15.223Z,25.00
2023-04-22T12:18:50.088Z,25.00
2023-04-22T12:21:20.090Z,25.00
2023-04-22T12:23:49.363Z,24.90
2023-04-22T12:26:19.720Z,24.90
2023-04-22T12:28:48.327Z,24.60
2023-04-22T12:31:16.891Z,24.60
2023-04-22T12:33:45.549Z,24.60
2023-04-22T12:36:13.714Z,24.50
2023-04-22T12:38:41.611Z,24.40
2023-04-22T12:41:09.527Z,24.40
2023-04-22T12:43:39.459Z,24.40
2023-04-22T12:46:08.294Z,24.20
2023-04-22T12:48:37.264Z,24.20
2023-04-22T12:51:05.688Z,24.10
2023-04-22T12:53:33.480Z,24.20
2023-04-22T12:56:01.303Z,24.00
2023-04-22T12:58:29.059Z,23.90
2023-04-22T13:00:58.132Z,23.90
2023-04-22T13:03:26.012Z,23.90
2023-04-22T13:05:54.031Z,23.80
2023-04-22T13:08:21.926Z,23.70
2023-04-22T13:10:49.715Z,23.70
2023-04-22T13:13:19.335Z,23.50
2023-04-22T13:15:47.966Z,23.50
2023-04-22T13:18:17.510Z,23.60
2023-04-22T13:20:45.500Z,23.70
2023-04-22T13:23:14.416Z,23.60
2023-04-22T13:25:42.198Z,23.50
2023-04-22T13:28:11.405Z,23.40
2023-04-22T13:30:39.624Z,23.40
2023-04-22T13:33:07.506Z,23.40
2023-04-22T13:35:36.797Z,23.30
2023-04-22T13:38:05.107Z,23.20
2023-04-22T13:40:32.895Z,23.10
2023-04-22T13:43:00.691Z,23.20
2023-04-22T13:45:28.580Z,23.10
2023-04-22T13:47:56.538Z,23.20
2023-04-22T13:50:24.677Z,23.30
2023-04-22T13:52:53.921Z,23.20
2023-04-22T13:55:21.747Z,23.20
2023-04-22T13:57:51.407Z,23.00
2023-04-22T14:00:20.780Z,23.10
2023-04-22T14:02:49.295Z,23.10
2023-04-22T14:05:17.776Z,22.90
2023-04-22T14:07:45.588Z,22.90
2023-04-22T14:10:16.241Z,22.90
2023-04-22T14:12:45.204Z,22.90
2023-04-22T14:15:13.244Z,22.90
2023-04-22T14:17:41.159Z,22.90
2023-04-22T14:20:11.258Z,22.90
2023-04-22T14:22:39.198Z,23.00
2023-04-22T14:25:08.187Z,23.00
2023-04-22T14:27:37.369Z,23.10
2023-04-22T14:30:06.892Z,23.00
2023-04-22T14:32:34.792Z,23.00
2023-04-22T14:35:03.113Z,23.10
2023-04-22T14:37:31.807Z,23.10
2023-04-22T14:39:59.711Z,23.10
2023-04-22T14:42:28.233Z,23.00
2023-04-22T14:44:57.772Z,23.00
2023-04-22T14:47:25.783Z,22.90
2023-04-22T14:49:53.794Z,22.90
2023-04-22T14:52:21.626Z,23.00
2023-04-22T14:54:51.797Z,22.90
2023-04-22T14:57:20.075Z,22.90
2023-04-22T14:59:47.887Z,22.80
2023-04-22T15:02:17.345Z,22.80
2023-04-22T15:04:45.582Z,22.80
2023-04-22T15:07:13.800Z,22.80
2023-04-22T15:09:41.934Z,22.70
2023-04-22T15:12:10.033Z,22.70
2023-04-22T15:14:38.020Z,22.70
2023-04-22T15:17:06.261Z,22.60
2023-04-22T15:19:35.531Z,22.70
2023-04-22T15:22:03.498Z,22.60
2023-04-22T15:24:31.379Z,22.70
2023-04-22T15:27:00.193Z,22.50
2023-04-22T15:29:28.622Z,22.30
2023-04-22T15:31:56.655Z,22.30
2023-04-22T15:34:25.221Z,22.20
2023-04-22T15:36:54.637Z,22.30
2023-04-22T15:39:22.487Z,22.30
2023-04-22T15:41:50.430Z,22.30
2023-04-22T15:44:18.257Z,22.20
2023-04-22T15:46:46.973Z,22.20
2023-04-22T15:49:15.631Z,22.20
2023-04-22T15:51:43.436Z,22.20
2023-04-22T15:54:13.249Z,22.30
2023-04-22T15:56:41.077Z,22.20
2023-04-22T15:59:09.113Z,22.10
2023-04-22T16:01:38.710Z,22.10
2023-04-22T16:04:08.328Z,22.10
2023-04-22T16:06:37.674Z,22.00
2023-04-22T16:09:05.877Z,22.00
2023-04-22T16:11:34.988Z,22.00
2023-04-22T16:14:02.795Z,21.90
2023-04-22T16:16:30.987Z,21.90
2023-04-22T16:18:59.688Z,21.90
2023-04-22T16:21:28.721Z,22.00
2023-04-22T16:23:56.516Z,22.00
2023-04-22T16:26:24.341Z,22.00
2023-04-22T16:28:54.879Z,21.90
2023-04-22T16:31:23.583Z,21.80
2023-04-22T16:33:52.107Z,21.80
2023-04-22T16:36:19.991Z,21.80
2023-04-22T16:38:47.749Z,21.80
2023-04-22T16:41:15.915Z,21.70
2023-04-22T16:43:43.920Z,21.60
2023-04-22T16:46:13.366Z,21.60
2023-04-22T16:48:41.238Z,21.60
2023-04-22T16:51:09.050Z,21.40
2023-04-22T16:53:36.932Z,21.30
2023-04-22T16:56:05.914Z,21.10
2023-04-22T16:58:33.696Z,21.00
2023-04-22T17:01:01.499Z,20.90
2023-04-22T17:03:31.031Z,20.90
2023-04-22T17:05:58.948Z,21.00
2023-04-22T17:08:26.887Z,21.00
2023-04-22T17:10:54.686Z,20.90
2023-04-22T17:13:22.508Z,20.90
2023-04-22T17:15:50.437Z,20.70
2023-04-22T17:18:18.201Z,20.60
2023-04-22T17:20:49.220Z,20.50
2023-04-22T17:23:18.196Z,20.50
2023-04-22T17:26:45.280Z,20.40
2023-04-22T17:29:13.084Z,20.30
2023-04-22T17:31:41.138Z,20.00
2023-04-22T17:34:08.916Z,19.80
2023-04-22T17:36:38.105Z,19.50
2023-04-22T17:39:06.023Z,19.20
2023-04-22T17:41:33.886Z,18.90
2023-04-22T17:44:01.652Z,18.70
2023-04-22T17:46:29.435Z,18.40
2023-04-22T17:48:57.474Z,18.30
2023-04-22T17:51:25.264Z,18.10
2023-04-22T17:53:56.874Z,17.90
2023-04-22T17:56:25.127Z,17.80
2023-04-22T17:58:53.270Z,17.70
2023-04-22T18:01:21.138Z,17.60
2023-04-22T18:03:49.244Z,17.50
2023-04-22T18:06:17.153Z,17.40
2023-04-22T18:08:44.935Z,17.40
2023-04-22T18:11:14.186Z,17.30
2023-04-22T18:13:42.075Z,17.20
2023-04-22T18:16:09.997Z,17.10
2023-04-22T18:18:38.824Z,16.90
2023-04-22T18:21:06.702Z,16.80
2023-04-22T18:23:35.140Z,16.70
2023-04-22T18:26:09.534Z,16.70
2023-04-22T18:28:40.149Z,16.50
2023-04-22T18:31:08.182Z,16.40
2023-04-22T18:33:36.484Z,16.20
2023-04-22T18:36:04.978Z,16.00
2023-04-22T18:38:32.997Z,16.00
2023-04-22T18:41:00.764Z,15.90
2023-04-22T18:43:28.566Z,15.70
2023-04-22T18:45:57.682Z,15.50
2023-04-22T18:48:25.765Z,15.40
2023-04-22T18:50:53.610Z,15.30
2023-04-22T18:53:21.354Z,15.20
2023-04-22T18:55:49.180Z,15.00
2023-04-22T18:58:16.967Z,14.90
2023-04-22T19:00:44.898Z,14.80
2023-04-22T19:03:14.193Z,14.70
2023-04-22T19:05:42.113Z,14.70
2023-04-22T19:08:09.925Z,14.70
2023-04-22T19:10:38.210Z,14.60
2023-04-22T19:13:08.049Z,14.60
2023-04-22T19:15:39.369Z,14.50
2023-04-22T19:18:07.352Z,14.30
2023-04-22T19:20:37.098Z,14.10
2023-04-22T19:23:04.988Z,14.00
2023-04-22T19:25:34.117Z,13.80
2023-04-22T19:28:01.873Z,13.60
2023-04-22T19:30:29.712Z,13.60
2023-04-22T19:32:57.599Z,13.50
2023-04-22T19:35:27.234Z,13.40
2023-04-22T19:37:56.400Z,13.40
2023-04-22T19:40:24.379Z,13.20
2023-04-22T19:42:52.244Z,13.10
2023-04-22T19:45:20.028Z,13.00
2023-04-22T19:47:48.218Z,12.80
2023-04-22T19:50:16.621Z,12.80
2023-04-22T19:52:47.111Z,12.80
2023-04-22T19:55:17.424Z,12.80
2023-04-22T19:57:45.572Z,12.80
2023-04-22T20:00:14.426Z,12.80
2023-04-22T20:02:42.846Z,12.80
2023-04-22T20:05:11.494Z,12.80
2023-04-22T20:07:40.893Z,12.70
2023-04-22T20:10:09.973Z,12.60
2023-04-22T20:12:39.491Z,12.60
2023-04-22T20:15:08.977Z,12.60
2023-04-22T20:17:39.168Z,12.40
2023-04-22T20:20:12.896Z,12.40
2023-04-22T20:22:41.569Z,12.40
2023-04-22T20:25:13.747Z,12.20
2023-04-22T20:27:43.533Z,12.20
2023-04-22T20:30:13.615Z,12.10
2023-04-22T20:32:41.943Z,12.10
2023-04-22T20:35:14.799Z,12.00
2023-04-22T20:37:43.710Z,12.00
2023-04-22T20:40:15.144Z,12.00
2023-04-22T20:42:44.413Z,11.90
2023-04-22T20:45:15.603Z,11.70
2023-04-22T20:47:44.129Z,11.60
2023-04-22T20:50:13.097Z,11.70
2023-04-22T20:52:41.169Z,11.60
2023-04-22T20:55:09.545Z,11.60
2023-04-22T20:57:37.655Z,11.50
2023-04-22T21:00:08.586Z,11.40
2023-04-22T21:02:37.329Z,11.30
2023-04-22T21:05:06.756Z,11.30
2023-04-22T21:07:35.966Z,11.30
2023-04-22T21:10:04.234Z,11.40
2023-04-22T21:12:33.098Z,11.40
2023-04-22T21:15:01.728Z,11.30
2023-04-22T21:17:32.612Z,11.20
2023-04-22T21:20:02.584Z,11.20
2023-04-22T21:22:30.944Z,11.10
2023-04-22T21:24:59.813Z,11.20
2023-04-22T21:27:28.092Z,11.20
2023-04-22T21:29:57.030Z,11.20
2023-04-22T21:32:24.832Z,11.20
2023-04-22T21:34:53.964Z,11.30
2023-04-22T21:37:21.798Z,11.30
2023-04-22T21:39:49.538Z,11.40
2023-04-22T21:42:17.267Z,11.30
2023-04-22T21:44:49.686Z,11.40
2023-04-22T21:47:17.767Z,11.50
2023-04-22T21:49:46.979Z,11.70
2023-04-22T21:52:16.362Z,11.80
2023-04-22T21:54:44.281Z,11.80
2023-04-22T21:57:12.168Z,11.80
2023-04-22T21:59:39.928Z,11.90
2023-04-22T22:02:07.662Z,12.00
2023-04-22T22:04:36.457Z,11.90
2023-04-22T22:07:04.279Z,12.00
2023-04-22T22:09:33.364Z,12.00
2023-04-22T22:12:01.798Z,11.90
2023-04-22T22:14:29.578Z,11.90
2023-04-22T22:16:57.449Z,11.90
2023-04-22T22:19:27.764Z,11.90
2023-04-22T22:21:55.745Z,11.90
2023-04-22T22:24:23.841Z,12.00
2023-04-22T22:26:52.919Z,12.00
2023-04-22T22:29:20.744Z,12.10
2023-04-22T22:31:48.533Z,12.20
2023-04-22T22:34:16.306Z,12.30
2023-04-22T22:36:44.052Z,12.40
2023-04-22T22:39:14.418Z,12.70
2023-04-22T22:41:43.863Z,13.00
2023-04-22T22:44:13.262Z,13.40
2023-04-22T22:46:41.298Z,13.80
2023-04-22T22:49:09.087Z,14.10
2023-04-22T22:51:37.535Z,14.30
2023-04-22T22:54:06.491Z,14.50
2023-04-22T22:56:34.473Z,14.60
2023-04-22T22:59:02.263Z,14.70
2023-04-22T23:01:31.464Z,14.70
2023-04-22T23:03:59.657Z,14.80
2023-04-22T23:06:28.130Z,14.80
2023-04-22T23:08:55.886Z,14.80
2023-04-22T23:11:23.619Z,14.90
2023-04-22T23:13:51.384Z,14.80
2023-04-22T23:16:19.509Z,14.90
2023-04-22T23:18:49.283Z,14.90
2023-04-22T23:21:17.280Z,14.90
2023-04-22T23:23:45.715Z,14.90
2023-04-22T23:26:14.004Z,14.80
2023-04-22T23:28:42.181Z,14.70
2023-04-22T23:31:11.002Z,14.70
2023-04-22T23:33:41.978Z,14.60
2023-04-22T23:36:14.028Z,14.70
2023-04-22T23:38:41.793Z,14.70
2023-04-22T23:41:09.545Z,14.70
2023-04-22T23:43:37.444Z,14.60
2023-04-22T23:46:05.500Z,14.60
2023-04-22T23:48:33.362Z,14.60
2023-04-22T23:51:01.242Z,14.40
2023-04-22T23:53:30.358Z,14.30
2023-04-22T23:55:58.654Z,14.10
2023-04-22T23:58:26.724Z,14.10
